Time;durP1;ratioP1;P1;durP2;ratioP2;P2;SDS_P1;SDS_P2;PMS_P1;PMS_P2;Temp;Humidity;BMP_temperature;BMP_pressure;BME280_temperature;BME280_humidity;BME280_pressure;Samples;Min_cycle;Max_cycle;Signal;HPM_P1;HPM_P2
2022/08/10 00:01:40;;;;;;;9.85;4.63;;;;;;;19.74;64.42;101818.88;5082134;28;20083;-83
2022/08/10 00:04:07;;;;;;;6.57;4.55;;;;;;;19.69;64.83;101823.09;5077172;28;20080;-82
2022/08/10 00:06:34;;;;;;;7.20;4.28;;;;;;;19.70;65.02;101816.78;5076041;28;20052;-82
2022/08/10 00:09:02;;;;;;;6.28;4.20;;;;;;;19.69;65.30;101828.44;5076084;28;20072;-82
2022/08/10 00:11:28;;;;;;;6.68;4.60;;;;;;;19.69;65.40;101823.09;5089119;28;20071;-81
2022/08/10 00:13:55;;;;;;;9.00;4.95;;;;;;;19.61;65.32;101809.94;5096958;28;20090;-81
2022/08/10 00:16:22;;;;;;;5.45;4.55;;;;;;;19.59;65.75;101827.88;5086256;28;20131;-79
2022/08/10 00:18:48;;;;;;;9.93;4.95;;;;;;;19.48;65.76;101824.66;5075719;28;20083;-82
2022/08/10 00:21:15;;;;;;;10.40;4.80;;;;;;;19.39;66.26;101820.47;5084551;28;20121;-78
2022/08/10 00:23:42;;;;;;;8.25;4.63;;;;;;;19.34;66.86;101828.19;5093870;28;20082;-80
2022/08/10 00:26:10;;;;;;;10.40;5.00;;;;;;;19.21;66.95;101828.81;5089371;28;20185;-82
2022/08/10 00:28:37;;;;;;;8.60;4.57;;;;;;;19.07;67.29;101815.56;5076097;28;20083;-82
2022/08/10 00:31:04;;;;;;;7.18;5.03;;;;;;;18.99;67.41;101818.28;5084365;28;20089;-82
2022/08/10 00:33:31;;;;;;;7.07;4.93;;;;;;;18.98;67.86;101814.00;5095997;28;20222;-82
2022/08/10 00:35:57;;;;;;;9.10;4.70;;;;;;;18.89;67.90;101818.59;5087750;28;20083;-82
2022/08/10 00:38:24;;;;;;;9.68;5.00;;;;;;;18.86;68.26;101806.50;5076090;28;20128;-82
2022/08/10 00:40:50;;;;;;;5.93;4.82;;;;;;;18.83;68.51;101804.22;5075799;28;20048;-82
2022/08/10 00:43:18;;;;;;;8.93;4.95;;;;;;;18.83;68.33;101798.91;5098442;22;20494;-78
2022/08/10 00:45:45;;;;;;;9.60;4.75;;;;;;;18.80;68.47;101793.97;5090526;28;20086;-79
2022/08/10 00:48:21;;;;;;;8.73;4.53;;;;;;;18.83;68.87;101790.97;5074150;28;20048;-78
2022/08/10 00:50:51;;;;;;;9.57;5.22;;;;;;;18.80;68.77;101793.97;5075519;28;20053;-79
2022/08/10 00:53:18;;;;;;;9.80;5.45;;;;;;;18.74;69.01;101793.88;5075260;28;20048;-78
2022/08/10 00:55:45;;;;;;;10.20;5.00;;;;;;;18.67;69.33;101782.34;5078255;28;20071;-79
2022/08/10 00:58:11;;;;;;;11.80;5.40;;;;;;;18.70;68.94;101780.16;5095489;28;20083;-79
2022/08/10 01:00:41;;;;;;;8.82;5.18;;;;;;;18.69;68.66;101775.03;5092058;28;20044;-79
2022/08/10 01:03:08;;;;;;;9.07;5.15;;;;;;;18.72;68.93;101790.56;5076600;28;20048;-79
2022/08/10 01:05:39;;;;;;;7.60;5.30;;;;;;;18.74;68.86;101778.78;5078486;28;20072;-80
2022/08/10 01:08:14;;;;;;;9.10;5.30;;;;;;;18.73;68.89;101771.84;5096800;28;20048;-80
2022/08/10 01:10:50;;;;;;;8.50;5.10;;;;;;;18.71;68.44;101773.03;5096180;28;20434;-80
2022/08/10 01:13:23;;;;;;;7.38;5.35;;;;;;;18.68;68.43;101766.25;5084212;28;20111;-80
2022/08/10 01:15:59;;;;;;;7.55;5.35;;;;;;;18.72;68.46;101767.53;5086177;28;20131;-80
2022/08/10 01:18:42;;;;;;;7.15;5.35;;;;;;;18.72;68.64;101772.84;5098664;28;20055;-79
2022/08/10 01:21:29;;;;;;;9.65;5.72;;;;;;;18.69;68.63;101781.16;5100642;28;20498;-80
2022/08/10 01:24:14;;;;;;;7.05;5.28;;;;;;;18.66;68.66;101770.91;5098720;28;20407;-80
2022/08/10 01:26:58;;;;;;;12.90;5.57;;;;;;;18.71;68.57;101768.53;5086076;28;20075;-81
2022/08/10 01:29:55;;;;;;;7.90;5.28;;;;;;;18.63;68.75;101765.97;5079381;28;20112;-80
2022/08/10 01:32:31;;;;;;;6.63;4.78;;;;;;;18.59;68.78;101769.94;5078818;28;20074;-80
2022/08/10 01:35:07;;;;;;;8.20;4.72;;;;;;;18.55;68.94;101773.97;5080339;28;20052;-80
2022/08/10 01:37:42;;;;;;;7.47;4.95;;;;;;;18.53;69.27;101770.66;5081002;28;20052;-81
2022/08/10 01:40:12;;;;;;;8.02;5.13;;;;;;;18.53;69.01;101770.66;5079518;28;20048;-79
2022/08/10 01:42:42;;;;;;;6.80;4.80;;;;;;;18.50;69.12;101763.06;5078624;28;20044;-79
2022/08/10 01:45:15;;;;;;;6.63;5.30;;;;;;;18.42;69.63;101768.47;5077521;28;20048;-79
2022/08/10 01:50:35;;;;;;;7.47;4.80;;;;;;;18.36;70.10;101774.50;5078336;28;20063;-80
2022/08/10 01:53:12;;;;;;;8.27;5.13;;;;;;;18.34;70.33;101777.31;5078751;28;20163;-79
2022/08/10 01:55:41;;;;;;;7.82;5.13;;;;;;;18.27;70.57;101762.31;5078305;28;20040;-80
2022/08/10 01:58:10;;;;;;;9.05;4.93;;;;;;;18.19;70.58;101758.72;5079482;28;20075;-79
2022/08/10 02:00:44;;;;;;;6.07;4.68;;;;;;;18.15;70.95;101761.91;5080758;28;20045;-80
2022/08/10 02:03:12;;;;;;;9.40;5.00;;;;;;;18.13;70.79;101759.44;5078727;28;20048;-79
2022/08/10 02:05:43;;;;;;;6.32;4.78;;;;;;;18.14;70.76;101766.38;5078503;28;20415;-79
2022/08/10 02:08:14;;;;;;;7.97;4.82;;;;;;;18.09;71.04;101763.44;5079689;28;20454;-79
2022/08/10 02:10:42;;;;;;;8.65;5.05;;;;;;;18.07;71.04;101776.03;5079937;28;20059;-79
2022/08/10 02:13:10;;;;;;;7.15;5.07;;;;;;;18.07;71.26;101761.97;5080164;28;20087;-79
2022/08/10 02:15:41;;;;;;;6.50;5.00;;;;;;;18.02;71.59;101762.50;5080855;28;20045;-81
2022/08/10 02:18:10;;;;;;;8.32;4.97;;;;;;;17.99;71.69;101764.69;5081335;28;20076;-79
2022/08/10 02:20:40;;;;;;;8.18;4.80;;;;;;;17.88;71.89;101771.22;5078092;28;20086;-78
2022/08/10 02:23:11;;;;;;;7.22;4.80;;;;;;;17.83;72.48;101768.28;5075464;28;20071;-78
2022/08/10 02:25:39;;;;;;;8.52;4.85;;;;;;;17.80;72.63;101768.63;5088807;28;20251;-78
2022/08/10 02:28:07;;;;;;;9.23;5.18;;;;;;;17.75;72.67;101768.34;5110333;28;20059;-79
2022/08/10 02:30:34;;;;;;;7.45;4.45;;;;;;;17.74;72.88;101764.03;5103972;28;20127;-79
2022/08/10 02:33:04;;;;;;;8.40;4.93;;;;;;;17.71;73.09;101767.84;5076844;28;20076;-79
2022/08/10 02:35:32;;;;;;;6.47;5.20;;;;;;;17.64;73.17;101771.34;5075926;28;20090;-80
2022/08/10 02:38:04;;;;;;;13.63;5.70;;;;;;;17.66;73.56;101775.50;5081962;28;20127;-79
2022/08/10 02:40:35;;;;;;;7.30;5.00;;;;;;;17.65;73.47;101771.19;5095747;28;20055;-79
2022/08/10 02:43:09;;;;;;;5.65;4.93;;;;;;;17.61;73.85;101779.63;5095445;28;20075;-79
2022/08/10 02:45:42;;;;;;;6.43;4.72;;;;;;;17.56;73.90;101778.31;5094702;28;20483;-78
2022/08/10 02:48:13;;;;;;;;;;;;;;;17.52;74.32;101771.72;5094620;28;20044;-78
2022/08/10 02:50:43;;;;;;;6.60;4.63;;;;;;;17.45;74.49;101777.91;5094706;28;19920;-79
2022/08/10 02:53:16;;;;;;;11.25;5.05;;;;;;;17.43;74.80;101780.72;5094043;28;20483;-79
2022/08/10 02:55:48;;;;;;;8.30;5.00;;;;;;;17.40;74.88;101783.72;5074092;28;20098;-79
2022/08/10 02:58:22;;;;;;;7.47;5.17;;;;;;;17.33;75.26;101777.47;5074211;28;20419;-79
2022/08/10 03:00:54;;;;;;;8.23;4.93;;;;;;;17.34;75.35;101778.28;5080039;28;20048;-79
2022/08/10 03:03:26;;;;;;;8.18;5.35;;;;;;;17.29;75.82;101772.69;5094637;28;20475;-79
2022/08/10 03:05:56;;;;;;;7.50;5.57;;;;;;;17.27;75.94;101767.56;5097474;28;20506;-80
2022/08/10 03:08:27;;;;;;;7.90;5.43;;;;;;;17.25;76.02;101774.84;5097460;28;20058;-80
2022/08/10 03:10:56;;;;;;;8.00;5.10;;;;;;;17.25;76.52;101774.84;5090172;28;20473;-80
2022/08/10 03:13:24;;;;;;;8.45;5.22;;;;;;;17.27;76.14;101766.75;5077119;28;20127;-79
2022/08/10 03:15:52;;;;;;;6.57;5.28;;;;;;;17.23;76.45;101769.75;5082370;28;20517;-80
2022/08/10 03:18:21;;;;;;;7.68;5.75;;;;;;;17.20;76.59;101766.59;5096609;28;20493;-79
2022/08/10 03:20:51;;;;;;;9.90;5.05;;;;;;;17.17;77.11;101769.59;5090114;28;20098;-80
2022/08/10 03:23:19;;;;;;;9.40;5.28;;;;;;;17.10;76.43;101766.81;5076284;28;20526;-80
2022/08/10 03:25:47;;;;;;;10.75;5.80;;;;;;;17.05;76.57;101768.31;5076816;28;20091;-79
2022/08/10 03:28:15;;;;;;;11.00;5.82;;;;;;;16.98;76.50;101767.38;5075967;28;20230;-76
2022/08/10 03:30:43;;;;;;;11.73;5.80;;;;;;;16.96;76.58;101770.19;5079819;28;20047;-80
2022/08/10 03:33:19;;;;;;;8.95;5.43;;;;;;;16.91;76.40;101761.94;5096095;28;20518;-78
2022/08/10 03:35:46;;;;;;;8.20;5.85;;;;;;;16.90;76.64;101765.56;5095507;28;20094;-79
2022/08/10 03:38:14;;;;;;;9.98;6.00;;;;;;;16.85;76.68;101766.06;5092670;28;20048;-77
2022/08/10 03:40:45;;;;;;;11.13;5.90;;;;;;;16.79;76.72;101761.47;5089062;28;20414;-76
2022/08/10 03:43:15;;;;;;;10.02;5.60;;;;;;;16.71;77.31;101769.41;5073967;28;20045;-78
2022/08/10 03:45:43;;;;;;;7.88;5.53;;;;;;;16.74;77.03;101761.16;5078342;28;20068;-77
2022/08/10 03:48:11;;;;;;;8.77;5.47;;;;;;;16.75;76.84;101761.97;5094036;28;20146;-78
2022/08/10 03:50:39;;;;;;;7.55;5.57;;;;;;;16.72;77.24;101764.94;5093076;28;20048;-78
2022/08/10 03:53:06;;;;;;;7.22;5.68;;;;;;;16.72;77.39;101768.41;5092837;28;20052;-78
2022/08/10 03:55:35;;;;;;;9.00;5.80;;;;;;;16.65;77.67;101754.22;5086795;28;20072;-78
2022/08/10 03:58:02;;;;;;;7.07;5.53;;;;;;;16.70;77.21;101757.19;5072715;28;20094;-79
2022/08/10 04:00:33;;;;;;;7.88;5.57;;;;;;;16.74;77.50;101758.50;5074521;28;20149;-78
2022/08/10 04:03:01;;;;;;;10.23;5.75;;;;;;;16.74;77.61;101761.16;5072971;28;20053;-78
2022/08/10 04:05:28;;;;;;;8.77;5.78;;;;;;;16.65;78.05;101766.59;5073062;28;20055;-78
2022/08/10 04:07:55;;;;;;;8.95;5.88;;;;;;;16.67;77.89;101770.72;5076109;28;20052;-78
2022/08/10 04:10:22;;;;;;;8.68;5.22;;;;;;;16.58;78.53;101766.41;5076859;28;20084;-77
2022/08/10 04:12:50;;;;;;;7.88;5.22;;;;;;;16.60;77.99;101761.78;5075711;28;20084;-78
2022/08/10 04:15:17;;;;;;;7.05;5.70;;;;;;;16.62;78.12;101767.72;5076240;28;20083;-77
2022/08/10 04:17:43;;;;;;;7.75;5.70;;;;;;;16.65;77.88;101764.78;5093739;28;20056;-78
2022/08/10 04:20:19;;;;;;;8.23;5.80;;;;;;;16.69;78.28;101767.94;5092354;28;20094;-78
2022/08/10 04:22:49;;;;;;;13.82;5.82;;;;;;;16.68;78.34;101772.38;5093001;28;20429;-76
2022/08/10 04:25:17;;;;;;;17.42;6.13;;;;;;;16.69;78.30;101766.09;5082202;28;20048;-78
2022/08/10 04:27:44;;;;;;;11.52;6.05;;;;;;;16.70;78.14;101772.22;5072127;28;20048;-78
2022/08/10 04:30:13;;;;;;;10.40;5.80;;;;;;;16.66;78.18;101763.78;5072539;28;20045;-78
2022/08/10 04:32:41;;;;;;;10.98;5.63;;;;;;;16.76;77.72;101784.75;5092681;28;20043;-78
2022/08/10 04:35:10;;;;;;;9.38;5.93;;;;;;;16.79;77.70;101774.69;5082882;28;20048;-77
2022/08/10 04:37:39;;;;;;;7.45;5.60;;;;;;;16.83;77.56;101776.00;5072585;28;20127;-77
2022/08/10 04:40:06;;;;;;;9.73;6.57;;;;;;;16.95;76.95;101770.34;5072932;28;20052;-77
2022/08/10 04:42:33;;;;;;;7.60;5.68;;;;;;;16.96;77.11;101770.19;5072696;28;20044;-76
2022/08/10 04:45:06;;;;;;;8.68;5.47;;;;;;;17.04;76.75;101767.47;5073432;28;20090;-76
2022/08/10 04:47:34;;;;;;;9.15;5.80;;;;;;;17.21;76.20;101769.09;5071982;28;20044;-76
2022/08/10 04:50:01;;;;;;;10.95;6.35;;;;;;;17.30;75.68;101769.88;5071513;28;20054;-77
2022/08/10 04:52:28;;;;;;;12.60;5.90;;;;;;;17.34;75.71;101762.41;5072159;28;20084;-75
2022/08/10 04:54:55;;;;;;;13.23;6.40;;;;;;;17.34;75.48;101768.53;5072056;28;20124;-78
2022/08/10 04:57:22;;;;;;;11.77;6.25;;;;;;;17.35;75.48;101764.06;5072462;28;20056;-77
2022/08/10 04:59:49;;;;;;;9.20;6.03;;;;;;;17.58;74.61;101765.75;5073389;28;20102;-78
2022/08/10 05:02:15;;;;;;;12.65;5.82;;;;;;;17.90;73.58;101769.22;5072009;28;20491;-76
2022/08/10 05:04:44;;;;;;;8.57;6.07;;;;;;;18.11;72.76;101755.31;5071456;28;20048;-80
2022/08/10 05:07:12;;;;;;;8.77;5.88;;;;;;;18.08;72.98;101764.44;5076111;28;20431;-78
2022/08/10 05:09:40;;;;;;;9.48;6.30;;;;;;;18.02;73.00;101767.81;5073869;28;20068;-80
2022/08/10 05:12:07;;;;;;;9.15;6.18;;;;;;;18.05;73.12;101767.44;5073205;28;20049;-79
2022/08/10 05:14:35;;;;;;;11.70;6.65;;;;;;;18.15;72.78;101778.63;5073277;28;20076;-78
2022/08/10 05:17:01;;;;;;;7.38;5.63;;;;;;;18.31;72.24;101776.84;5074945;28;20067;-79
2022/08/10 05:19:28;;;;;;;10.80;6.07;;;;;;;18.37;71.95;101770.84;5078781;28;20120;-79
2022/08/10 05:21:56;;;;;;;14.85;6.97;;;;;;;18.60;71.38;101765.47;5074681;28;20094;-80
2022/08/10 05:24:24;;;;;;;17.33;6.60;;;;;;;18.92;70.62;101775.75;5077546;28;20048;-80
2022/08/10 05:26:51;;;;;;;6.97;5.80;;;;;;;18.97;70.36;101777.88;5076055;28;20465;-77
2022/08/10 05:29:17;;;;;;;10.48;6.07;;;;;;;19.26;69.66;101767.25;5074148;28;20083;-79
2022/08/10 05:31:44;;;;;;;9.68;5.90;;;;;;;19.74;68.06;101771.09;5074076;28;20118;-78
2022/08/10 05:34:11;;;;;;;9.05;6.13;;;;;;;20.36;65.96;101766.91;5074821;28;20056;-78
2022/08/10 05:36:38;;;;;;;7.88;5.43;;;;;;;21.23;63.74;101772.63;5073386;28;20071;-78
2022/08/10 05:39:21;;;;;;;9.20;5.57;;;;;;;21.76;61.74;101770.09;5077316;28;20049;-80
2022/08/10 05:41:52;;;;;;;9.82;5.20;;;;;;;22.59;60.12;101768.75;5078702;28;20067;-80
2022/08/10 05:44:19;;;;;;;10.43;4.97;;;;;;;22.99;58.32;101752.66;5080792;28;20048;-80
2022/08/10 05:46:46;;;;;;;6.78;5.13;;;;;;;23.72;57.15;101771.81;5095201;28;20048;-79
2022/08/10 05:49:13;;;;;;;9.10;5.00;;;;;;;24.16;55.95;101781.56;5099773;28;20229;-78
2022/08/10 05:51:40;;;;;;;12.85;5.20;;;;;;;24.77;54.11;101773.63;5099896;28;20076;-79
2022/08/10 05:54:13;;;;;;;12.05;4.78;;;;;;;25.66;52.04;101761.44;5095965;28;20079;-79
2022/08/10 05:56:43;;;;;;;6.75;4.95;;;;;;;26.02;51.29;101776.53;5089119;28;20049;-75
2022/08/10 05:59:10;;;;;;;10.32;5.10;;;;;;;26.49;50.38;101771.25;5085803;28;20041;-78
2022/08/10 06:01:41;;;;;;;7.40;4.53;;;;;;;26.95;49.24;101772.22;5086007;28;20060;-80
2022/08/10 06:04:10;;;;;;;7.43;4.90;;;;;;;26.36;50.02;101775.00;5079648;28;20079;-80
2022/08/10 06:06:38;;;;;;;6.35;5.00;;;;;;;26.32;50.72;101770.31;5090097;28;20044;-76
2022/08/10 06:09:07;;;;;;;8.68;4.90;;;;;;;26.29;50.05;101776.94;5095719;28;20134;-75
2022/08/10 06:11:37;;;;;;;9.40;4.88;;;;;;;26.40;50.37;101783.41;5095133;28;20077;-77
2022/08/10 06:16:51;;;;;;;9.85;5.28;;;;;;;26.98;49.78;101772.59;5080694;28;20113;-76
2022/08/10 06:19:19;;;;;;;8.40;5.03;;;;;;;26.99;49.09;101773.41;5074188;28;20072;-76
2022/08/10 06:21:47;;;;;;;7.38;5.00;;;;;;;27.11;47.98;101763.47;5074404;28;20567;-77
2022/08/10 06:24:16;;;;;;;9.02;5.32;;;;;;;27.46;47.56;101775.94;5074207;28;20045;-76
2022/08/10 06:26:44;;;;;;;9.15;5.03;;;;;;;28.19;45.80;101775.06;5075462;28;20106;-77
2022/08/10 06:29:13;;;;;;;6.38;4.80;;;;;;;28.48;45.60;101773.09;5074053;28;20087;-77
2022/08/10 06:31:43;;;;;;;7.53;5.15;;;;;;;28.19;45.32;101777.78;5086796;28;20432;-76
2022/08/10 06:34:12;;;;;;;8.95;5.03;;;;;;;27.62;46.17;101780.56;5093963;28;20040;-76
2022/08/10 06:36:42;;;;;;;11.32;4.93;;;;;;;28.23;46.42;101781.63;5079714;28;20091;-76
2022/08/10 06:39:09;;;;;;;10.50;5.20;;;;;;;28.80;45.06;101787.56;5090571;28;20567;-75
2022/08/10 06:41:41;;;;;;;12.95;5.25;;;;;;;28.60;45.10;101779.22;5087715;28;20520;-77
2022/08/10 06:44:12;;;;;;;9.45;4.70;;;;;;;28.07;44.81;101773.28;5116759;22;20484;-82
2022/08/10 06:46:50;;;;;;;11.20;5.20;;;;;;;27.55;46.03;101774.50;5101236;28;20101;-84
2022/08/10 06:49:31;;;;;;;7.00;4.97;;;;;;;28.91;44.31;101783.13;5101143;28;20074;-81
2022/08/10 06:52:06;;;;;;;7.93;5.25;;;;;;;28.22;43.92;101777.31;5100041;28;20072;-80
2022/08/10 06:54:33;;;;;;;9.85;5.07;;;;;;;29.43;43.38;101772.72;5082274;28;20062;-80
2022/08/10 06:57:02;;;;;;;7.18;5.00;;;;;;;29.51;41.95;101768.75;5076648;28;20079;-83
2022/08/10 06:59:36;;;;;;;7.13;5.30;;;;;;;30.14;41.44;101786.06;5072664;28;20079;-84
2022/08/10 07:02:06;;;;;;;12.40;5.35;;;;;;;29.47;41.70;101781.13;5076250;28;20072;-82
2022/08/10 07:04:40;;;;;;;6.53;4.85;;;;;;;30.03;41.64;101780.59;5072505;28;20044;-82
2022/08/10 07:07:08;;;;;;;12.40;5.40;;;;;;;30.13;41.30;101784.44;5073529;28;20119;-82
2022/08/10 07:09:37;;;;;;;10.90;4.78;;;;;;;29.60;41.29;101778.03;5062060;28;20083;-83
2022/08/10 07:12:06;;;;;;;10.13;5.43;;;;;;;30.21;40.61;101782.06;5068482;28;20114;-83
2022/08/10 07:14:38;;;;;;;14.32;5.55;;;;;;;29.37;41.50;101769.13;5075817;28;20048;-83
2022/08/10 07:17:07;;;;;;;10.52;4.65;;;;;;;30.14;40.98;101780.66;5068458;28;20079;-80
2022/08/10 07:19:34;;;;;;;10.25;5.25;;;;;;;30.16;40.53;101781.22;5070706;28;20047;-82
2022/08/10 07:22:01;;;;;;;9.88;5.03;;;;;;;29.99;40.45;101778.63;5079526;28;20072;-81
2022/08/10 07:24:31;;;;;;;12.57;5.32;;;;;;;28.83;41.68;101780.91;5078617;28;20123;-82
2022/08/10 07:26:59;;;;;;;8.15;5.18;;;;;;;27.97;42.71;101777.69;5079628;28;20048;-82
2022/08/10 07:29:30;;;;;;;12.10;5.43;;;;;;;28.06;43.19;101779.72;5079665;28;20072;-82
2022/08/10 07:31:59;;;;;;;11.43;5.43;;;;;;;29.20;41.81;101781.06;5079343;28;20080;-82
2022/08/10 07:34:29;;;;;;;12.80;5.85;;;;;;;29.56;40.58;101776.91;5077083;28;20067;-82
2022/08/10 07:36:58;;;;;;;14.30;5.38;;;;;;;29.61;40.84;101780.47;5064271;28;20048;-83
2022/08/10 07:39:29;;;;;;;8.70;5.25;;;;;;;29.60;40.80;101780.72;5079268;28;20060;-82
2022/08/10 07:41:58;;;;;;;14.80;5.40;;;;;;;29.55;40.99;101772.56;5077187;28;20044;-83
2022/08/10 07:44:27;;;;;;;11.70;5.18;;;;;;;29.58;41.15;101785.56;5073370;28;20052;-82
2022/08/10 07:47:00;;;;;;;12.90;5.65;;;;;;;29.24;41.17;101783.03;5080924;28;20072;-81
2022/08/10 07:49:30;;;;;;;15.05;5.47;;;;;;;29.27;40.63;101785.22;5073061;28;20041;-80
2022/08/10 07:51:59;;;;;;;14.00;5.13;;;;;;;29.42;41.27;101789.97;5080389;28;20051;-81
2022/08/10 07:54:27;;;;;;;8.10;5.60;;;;;;;30.32;40.45;101791.03;5080017;28;20040;-81
2022/08/10 07:57:01;;;;;;;15.27;5.47;;;;;;;30.30;40.11;101791.28;5079835;28;20048;-82
2022/08/10 07:59:35;;;;;;;15.70;5.28;;;;;;;30.09;40.24;101794.13;5079705;28;20052;-83
2022/08/10 08:02:06;;;;;;;11.23;4.95;;;;;;;30.99;37.72;101782.25;5074794;28;20075;-79
2022/08/10 08:04:33;;;;;;;12.55;5.43;;;;;;;30.18;39.16;101787.19;5070939;28;20044;-82
2022/08/10 08:07:03;;;;;;;8.25;4.90;;;;;;;30.18;38.83;101792.56;5074634;28;20077;-83
2022/08/10 08:09:31;;;;;;;7.68;5.05;;;;;;;30.69;37.67;101789.16;5069549;28;20518;-81
2022/08/10 08:11:59;;;;;;;6.47;5.00;;;;;;;30.08;39.00;101793.31;5068492;28;20075;-81
2022/08/10 08:14:26;;;;;;;6.35;5.30;;;;;;;30.37;38.15;101801.88;5076599;28;20060;-81
2022/08/10 08:16:55;;;;;;;9.13;5.20;;;;;;;30.34;38.13;101797.00;5076572;28;20080;-81
2022/08/10 08:19:25;;;;;;;13.10;5.25;;;;;;;30.53;38.20;101800.91;5077285;28;20052;-80
2022/08/10 08:21:55;;;;;;;9.18;5.10;;;;;;;30.65;37.59;101798.03;5077247;28;20052;-82
2022/08/10 08:24:23;;;;;;;8.45;5.07;;;;;;;31.01;36.49;101799.81;5076552;28;20048;-81
2022/08/10 08:26:52;;;;;;;6.03;5.35;;;;;;;31.00;36.26;101784.69;5072887;28;20049;-80
2022/08/10 08:29:20;;;;;;;5.80;4.93;;;;;;;31.01;36.34;101799.00;5076399;28;20463;-81
2022/08/10 08:31:49;;;;;;;10.23;5.20;;;;;;;30.52;36.42;101799.28;5077198;28;20104;-81
2022/08/10 08:34:19;;;;;;;8.98;4.60;;;;;;;31.00;36.34;101786.56;5077282;28;20053;-82
2022/08/10 08:36:49;;;;;;;8.82;5.30;;;;;;;30.03;36.88;101790.56;5078516;28;20048;-82
2022/08/10 08:39:16;;;;;;;5.93;4.82;;;;;;;30.24;37.37;101786.97;5077242;28;20136;-80
2022/08/10 08:41:58;;;;;;;13.27;5.32;;;;;;;29.88;37.28;101785.81;5077142;28;20055;-82
2022/08/10 08:44:42;;;;;;;9.52;5.20;;;;;;;30.09;37.53;101784.13;5076790;28;20103;-82
2022/08/10 08:47:30;;;;;;;5.63;5.00;;;;;;;30.29;36.51;101783.44;5077593;28;20080;-82
2022/08/10 08:50:10;;;;;;;7.15;4.88;;;;;;;30.66;36.17;101776.16;5056997;28;20091;-84
2022/08/10 08:52:53;;;;;;;9.57;5.32;;;;;;;30.48;37.06;101771.16;5058606;28;20049;-81
2022/08/10 08:55:31;;;;;;;8.30;4.55;;;;;;;30.68;36.25;101774.00;5056766;28;20045;-82
2022/08/10 08:58:08;;;;;;;6.53;4.30;;;;;;;30.89;36.27;101769.50;5055906;28;20052;-80
2022/08/10 09:00:43;;;;;;;9.82;5.22;;;;;;;29.92;37.67;101768.03;5056502;28;20049;-81
2022/08/10 09:03:34;;;;;;;8.60;5.30;;;;;;;30.11;37.79;101762.28;5057203;28;20489;-82
2022/08/10 09:06:10;;;;;;;8.70;5.18;;;;;;;30.20;36.99;101758.03;5057658;28;20494;-81
2022/08/10 09:09:02;;;;;;;10.43;5.22;;;;;;;30.14;36.60;101753.69;5057093;28;20096;-80
2022/08/10 09:11:45;;;;;;;7.93;4.82;;;;;;;30.57;37.67;101758.81;5057272;28;20076;-82
2022/08/10 09:14:20;;;;;;;8.10;4.93;;;;;;;30.90;36.63;101756.78;5058117;28;20503;-79
2022/08/10 09:16:53;;;;;;;6.75;4.85;;;;;;;31.03;36.05;101756.31;5056386;28;20047;-80
2022/08/10 09:19:27;;;;;;;11.52;5.10;;;;;;;30.14;36.77;101746.38;5056181;28;20099;-81
2022/08/10 09:22:00;;;;;;;11.45;5.28;;;;;;;30.69;36.17;101750.50;5055760;28;20080;-80
2022/08/10 09:24:36;;;;;;;14.38;4.72;;;;;;;31.18;36.49;101751.00;5056352;28;20458;-80
2022/08/10 09:27:14;;;;;;;8.07;4.95;;;;;;;31.01;36.08;101747.66;5055889;28;20048;-80
2022/08/10 09:29:48;;;;;;;9.07;4.78;;;;;;;30.96;35.97;101748.44;5055834;28;20087;-80
2022/08/10 09:32:31;;;;;;;8.75;4.72;;;;;;;31.35;35.83;101738.03;5056394;28;20466;-82
2022/08/10 09:35:06;;;;;;;8.15;4.55;;;;;;;31.31;35.08;101734.22;5056867;28;20136;-83
2022/08/10 09:37:45;;;;;;;10.23;5.00;;;;;;;31.44;35.06;101734.78;5060196;28;20088;-82
2022/08/10 09:40:19;;;;;;;9.55;5.10;;;;;;;30.88;35.43;101731.94;5060271;28;20075;-82
2022/08/10 09:42:52;;;;;;;13.95;5.13;;;;;;;30.39;36.33;101734.91;5060159;28;20087;-81
2022/08/10 09:45:29;;;;;;;6.93;5.03;;;;;;;30.44;36.47;101721.44;5059732;28;20517;-82
2022/08/10 09:48:02;;;;;;;10.63;4.90;;;;;;;30.08;36.52;101730.41;5059952;28;20053;-83
2022/08/10 09:50:35;;;;;;;11.50;5.35;;;;;;;31.08;35.80;101726.59;5059764;28;20068;-82
2022/08/10 09:53:08;;;;;;;11.65;5.25;;;;;;;30.74;36.28;101717.28;5060136;28;20055;-82
2022/08/10 09:55:43;;;;;;;10.43;5.22;;;;;;;31.30;36.78;101727.19;5060146;28;20049;-82
2022/08/10 09:58:27;;;;;;;10.35;4.85;;;;;;;31.32;36.68;101716.09;5060351;28;20045;-82
2022/08/10 10:01:06;;;;;;;13.07;5.22;;;;;;;31.02;36.64;101711.44;5061736;28;20573;-81
2022/08/10 10:03:40;;;;;;;8.02;5.45;;;;;;;30.32;36.19;101713.53;5061958;28;20060;-81
2022/08/10 10:06:13;;;;;;;6.28;4.68;;;;;;;29.80;36.27;101710.75;5061944;28;20080;-82
2022/08/10 10:08:45;;;;;;;8.82;5.00;;;;;;;30.43;37.16;101703.63;5062160;28;20053;-82
2022/08/10 10:11:17;;;;;;;6.45;4.80;;;;;;;30.84;35.82;101701.91;5064368;28;20049;-82
2022/08/10 10:13:56;;;;;;;11.18;4.80;;;;;;;30.19;36.16;101697.03;5065684;28;20081;-82
2022/08/10 10:16:37;;;;;;;9.75;5.20;;;;;;;29.98;35.94;101688.75;5064809;28;20044;-82
2022/08/10 10:19:19;;;;;;;7.32;5.30;;;;;;;29.96;36.63;101690.09;5064156;28;20063;-82
2022/08/10 10:21:49;;;;;;;;;;;;;;;29.95;36.63;101681.19;5060517;28;20053;-82
2022/08/10 10:24:25;;;;;;;7.63;5.07;;;;;;;30.06;35.94;101679.38;5059112;28;20011;-82
2022/08/10 10:26:57;;;;;;;7.60;5.07;;;;;;;29.98;36.26;101675.25;5059349;28;20059;-82
2022/08/10 10:29:38;;;;;;;10.43;5.22;;;;;;;30.06;35.67;101665.09;5058966;28;20136;-82
2022/08/10 10:32:15;;;;;;;8.52;4.80;;;;;;;30.03;36.04;101672.63;5058849;28;20095;-81
2022/08/10 10:34:50;;;;;;;11.63;5.10;;;;;;;30.07;35.89;101666.72;5059308;28;20089;-82
2022/08/10 10:37:20;;;;;;;10.65;5.20;;;;;;;29.81;36.26;101665.69;5059232;28;20056;-81
2022/08/10 10:39:52;;;;;;;10.27;5.28;;;;;;;29.43;36.61;101664.06;5058854;28;20112;-82
2022/08/10 10:42:31;;;;;;;7.03;5.00;;;;;;;29.89;36.50;101666.03;5059684;28;20103;-81
2022/08/10 10:45:15;;;;;;;11.43;5.35;;;;;;;29.86;36.13;101653.06;5059547;28;20088;-82
2022/08/10 10:47:55;;;;;;;10.65;5.30;;;;;;;30.04;35.94;101655.38;5060446;28;20103;-82
2022/08/10 10:50:28;;;;;;;6.22;4.97;;;;;;;30.45;34.97;101647.44;5061817;28;20072;-82
2022/08/10 10:53:04;;;;;;;11.60;5.32;;;;;;;30.19;35.12;101654.66;5062158;28;20068;-82
2022/08/10 10:55:38;;;;;;;12.23;4.88;;;;;;;30.53;35.27;101643.44;5057193;28;20098;-82
2022/08/10 10:58:15;;;;;;;5.97;4.75;;;;;;;30.29;34.40;101635.78;5058672;28;20049;-81
2022/08/10 11:00:50;;;;;;;8.40;4.90;;;;;;;30.47;34.87;101618.31;5058786;28;20059;-81
2022/08/10 11:03:34;;;;;;;14.32;4.90;;;;;;;30.79;33.96;101637.06;5058621;28;20491;-82
2022/08/10 11:06:08;;;;;;;5.95;4.65;;;;;;;30.64;34.68;101632.44;5058415;28;20049;-82
2022/08/10 11:08:40;;;;;;;7.07;4.35;;;;;;;30.79;33.88;101631.66;5058437;28;20099;-82
2022/08/10 11:11:11;;;;;;;7.65;4.50;;;;;;;31.13;34.05;101632.03;5060389;28;20049;-80
2022/08/10 11:13:45;;;;;;;9.65;4.90;;;;;;;30.67;33.64;101615.69;5064994;28;20076;-81
2022/08/10 11:16:18;;;;;;;9.65;5.47;;;;;;;31.21;33.71;101623.34;5059157;28;20053;-82
2022/08/10 11:19:07;;;;;;;7.00;4.85;;;;;;;30.65;33.05;101615.16;5058547;28;20075;-82
2022/08/10 11:21:49;;;;;;;12.43;4.47;;;;;;;30.51;33.38;101603.19;5058855;28;20057;-81
2022/08/10 11:24:24;;;;;;;6.45;4.80;;;;;;;30.86;33.66;101615.19;5058693;28;20136;-81
2022/08/10 11:26:57;;;;;;;8.57;4.60;;;;;;;30.60;33.55;101614.31;5058243;28;20103;-80
2022/08/10 11:29:33;;;;;;;6.10;4.47;;;;;;;30.98;33.05;101602.22;5058159;28;20511;-78
2022/08/10 11:32:04;;;;;;;6.88;4.45;;;;;;;30.90;32.78;101608.16;5058299;28;20088;-81
2022/08/10 11:34:37;;;;;;;6.70;4.47;;;;;;;31.07;33.42;101606.03;5058172;28;20109;-82
2022/08/10 11:37:15;;;;;;;6.50;4.90;;;;;;;31.18;32.87;101607.69;5059503;28;20088;-78
2022/08/10 11:39:51;;;;;;;6.72;4.88;;;;;;;30.56;33.54;101605.09;5059293;28;20052;-79
2022/08/10 11:42:30;;;;;;;7.47;4.80;;;;;;;31.04;33.43;101595.75;5059074;28;20456;-81
2022/08/10 11:45:02;;;;;;;9.88;4.80;;;;;;;30.81;33.16;101602.47;5058141;28;20135;-81
2022/08/10 11:47:37;;;;;;;5.78;4.70;;;;;;;31.05;32.75;101596.56;5057960;28;20467;-80
2022/08/10 11:50:11;;;;;;;7.20;4.15;;;;;;;31.05;32.75;101601.97;5058155;28;20068;-81